sensor_id;sensor_type;location;lat;lon;timestamp;P1;durP1;ratioP1;P2;durP2;ratioP2
28714;SDS011;15886;49.170;14.572;2022-07-21T00:29:50;6.18;;;3.17;;
28714;SDS011;15886;49.170;14.572;2022-07-21T00:33:04;11.30;;;3.17;;
28714;SDS011;15886;49.170;14.572;2022-07-21T00:35:37;10.38;;;3.28;;
28714;SDS011;15886;49.170;14.572;2022-07-21T00:38:05;3.97;;;2.65;;
28714;SDS011;15886;49.170;14.572;2022-07-21T00:40:36;8.98;;;2.92;;
28714;SDS011;15886;49.170;14.572;2022-07-21T00:43:07;4.50;;;2.60;;
28714;SDS011;15886;49.170;14.572;2022-07-21T00:45:39;7.95;;;3.20;;
28714;SDS011;15886;49.170;14.572;2022-07-21T00:48:18;12.73;;;3.72;;
28714;SDS011;15886;49.170;14.572;2022-07-21T00:51:47;11.35;;;3.88;;
28714;SDS011;15886;49.170;14.572;2022-07-21T01:05:09;6.40;;;3.22;;
28714;SDS011;15886;49.170;14.572;2022-07-21T01:09:00;7.47;;;3.03;;
28714;SDS011;15886;49.170;14.572;2022-07-21T01:12:06;7.63;;;4.18;;
28714;SDS011;15886;49.170;14.572;2022-07-21T01:15:00;7.85;;;3.05;;
28714;SDS011;15886;49.170;14.572;2022-07-21T01:17:54;6.85;;;3.35;;
28714;SDS011;15886;49.170;14.572;2022-07-21T01:20:38;6.22;;;3.00;;
28714;SDS011;15886;49.170;14.572;2022-07-21T01:26:42;9.63;;;3.33;;
28714;SDS011;15886;49.170;14.572;2022-07-21T01:29:16;5.93;;;3.25;;
28714;SDS011;15886;49.170;14.572;2022-07-21T01:31:45;8.52;;;3.30;;
28714;SDS011;15886;49.170;14.572;2022-07-21T01:34:16;5.60;;;3.15;;
28714;SDS011;15886;49.170;14.572;2022-07-21T01:36:46;6.93;;;3.17;;
28714;SDS011;15886;49.170;14.572;2022-07-21T01:39:14;4.75;;;2.80;;
28714;SDS011;15886;49.170;14.572;2022-07-21T01:42:01;9.40;;;3.13;;
28714;SDS011;15886;49.170;14.572;2022-07-21T01:51:56;6.57;;;2.83;;
28714;SDS011;15886;49.170;14.572;2022-07-21T01:54:41;4.97;;;3.35;;
28714;SDS011;15886;49.170;14.572;2022-07-21T01:57:09;6.68;;;3.85;;
28714;SDS011;15886;49.170;14.572;2022-07-21T01:59:38;8.60;;;3.40;;
28714;SDS011;15886;49.170;14.572;2022-07-21T02:02:06;5.70;;;2.90;;
28714;SDS011;15886;49.170;14.572;2022-07-21T02:04:35;5.32;;;3.13;;
28714;SDS011;15886;49.170;14.572;2022-07-21T02:07:09;4.25;;;2.95;;
28714;SDS011;15886;49.170;14.572;2022-07-21T02:09:38;6.40;;;2.83;;
28714;SDS011;15886;49.170;14.572;2022-07-21T02:12:07;4.55;;;3.00;;
28714;SDS011;15886;49.170;14.572;2022-07-21T02:14:41;7.63;;;2.80;;
28714;SDS011;15886;49.170;14.572;2022-07-21T02:17:26;5.53;;;3.15;;
28714;SDS011;15886;49.170;14.572;2022-07-21T02:26:25;6.40;;;2.88;;
28714;SDS011;15886;49.170;14.572;2022-07-21T02:28:55;4.43;;;3.30;;
28714;SDS011;15886;49.170;14.572;2022-07-21T02:31:24;7.78;;;3.45;;
28714;SDS011;15886;49.170;14.572;2022-07-21T02:33:52;5.90;;;3.53;;
28714;SDS011;15886;49.170;14.572;2022-07-21T02:36:21;6.97;;;3.55;;
28714;SDS011;15886;49.170;14.572;2022-07-21T02:38:49;4.57;;;3.50;;
28714;SDS011;15886;49.170;14.572;2022-07-21T02:41:18;7.03;;;3.70;;
28714;SDS011;15886;49.170;14.572;2022-07-21T02:43:46;6.10;;;3.75;;
28714;SDS011;15886;49.170;14.572;2022-07-21T02:55:26;9.50;;;4.35;;
28714;SDS011;15886;49.170;14.572;2022-07-21T02:58:28;7.30;;;4.28;;
28714;SDS011;15886;49.170;14.572;2022-07-21T03:36:31;13.32;;;3.92;;
28714;SDS011;15886;49.170;14.572;2022-07-21T03:42:02;11.13;;;4.18;;
28714;SDS011;15886;49.170;14.572;2022-07-21T03:44:31;4.97;;;3.58;;
28714;SDS011;15886;49.170;14.572;2022-07-21T03:47:46;7.13;;;3.65;;
28714;SDS011;15886;49.170;14.572;2022-07-21T03:50:43;7.40;;;3.85;;
28714;SDS011;15886;49.170;14.572;2022-07-21T05:02:59;9.88;;;5.05;;
28714;SDS011;15886;49.170;14.572;2022-07-21T06:03:00;20.20;;;6.82;;
28714;SDS011;15886;49.170;14.572;2022-07-21T06:05:32;12.00;;;6.45;;
28714;SDS011;15886;49.170;14.572;2022-07-21T06:08:42;21.00;;;8.40;;
28714;SDS011;15886;49.170;14.572;2022-07-21T06:11:12;14.70;;;9.65;;
28714;SDS011;15886;49.170;14.572;2022-07-21T06:13:43;14.85;;;9.90;;
28714;SDS011;15886;49.170;14.572;2022-07-21T06:16:11;15.50;;;9.38;;
28714;SDS011;15886;49.170;14.572;2022-07-21T06:18:40;18.10;;;9.65;;
28714;SDS011;15886;49.170;14.572;2022-07-21T06:21:08;14.02;;;10.07;;
28714;SDS011;15886;49.170;14.572;2022-07-21T06:23:36;14.98;;;9.75;;
28714;SDS011;15886;49.170;14.572;2022-07-21T06:26:05;17.25;;;10.35;;
28714;SDS011;15886;49.170;14.572;2022-07-21T06:28:33;20.55;;;10.35;;
28714;SDS011;15886;49.170;14.572;2022-07-21T06:31:02;17.98;;;10.82;;
28714;SDS011;15886;49.170;14.572;2022-07-21T06:33:30;19.73;;;10.43;;
28714;SDS011;15886;49.170;14.572;2022-07-21T06:35:59;18.17;;;10.70;;
28714;SDS011;15886;49.170;14.572;2022-07-21T06:38:27;18.23;;;9.55;;
28714;SDS011;15886;49.170;14.572;2022-07-21T06:40:55;19.10;;;9.98;;
28714;SDS011;15886;49.170;14.572;2022-07-21T06:43:23;13.80;;;9.95;;
28714;SDS011;15886;49.170;14.572;2022-07-21T06:45:53;17.38;;;10.02;;
28714;SDS011;15886;49.170;14.572;2022-07-21T06:48:23;16.02;;;10.00;;
28714;SDS011;15886;49.170;14.572;2022-07-21T06:50:52;18.60;;;9.70;;
28714;SDS011;15886;49.170;14.572;2022-07-21T06:53:44;20.77;;;9.88;;
28714;SDS011;15886;49.170;14.572;2022-07-21T06:56:13;22.80;;;9.07;;
28714;SDS011;15886;49.170;14.572;2022-07-21T06:58:41;18.20;;;9.02;;
28714;SDS011;15886;49.170;14.572;2022-07-21T07:01:13;17.95;;;8.23;;
28714;SDS011;15886;49.170;14.572;2022-07-21T07:03:44;14.90;;;8.30;;
28714;SDS011;15886;49.170;14.572;2022-07-21T07:06:13;13.35;;;9.10;;
28714;SDS011;15886;49.170;14.572;2022-07-21T07:08:45;16.88;;;8.85;;
28714;SDS011;15886;49.170;14.572;2022-07-21T08:43:52;11.90;;;8.85;;
28714;SDS011;15886;49.170;14.572;2022-07-21T10:08:29;15.05;;;9.15;;
28714;SDS011;15886;49.170;14.572;2022-07-21T10:12:04;13.05;;;7.30;;
28714;SDS011;15886;49.170;14.572;2022-07-21T10:20:40;11.32;;;8.05;;
28714;SDS011;15886;49.170;14.572;2022-07-21T10:29:35;8.75;;;7.32;;
28714;SDS011;15886;49.170;14.572;2022-07-21T10:36:04;7.65;;;6.68;;
28714;SDS011;15886;49.170;14.572;2022-07-21T10:38:33;11.43;;;6.75;;
28714;SDS011;15886;49.170;14.572;2022-07-21T10:41:04;9.77;;;5.82;;
28714;SDS011;15886;49.170;14.572;2022-07-21T10:56:09;10.13;;;6.90;;
28714;SDS011;15886;49.170;14.572;2022-07-21T10:59:00;8.77;;;7.10;;
28714;SDS011;15886;49.170;14.572;2022-07-21T11:01:33;6.57;;;5.22;;
28714;SDS011;15886;49.170;14.572;2022-07-21T11:04:13;8.00;;;6.32;;
28714;SDS011;15886;49.170;14.572;2022-07-21T11:06:44;7.57;;;5.45;;
28714;SDS011;15886;49.170;14.572;2022-07-21T11:09:28;7.63;;;5.40;;
28714;SDS011;15886;49.170;14.572;2022-07-21T11:11:59;7.80;;;4.97;;
28714;SDS011;15886;49.170;14.572;2022-07-21T11:14:34;9.93;;;5.95;;
28714;SDS011;15886;49.170;14.572;2022-07-21T11:17:04;7.72;;;5.18;;
28714;SDS011;15886;49.170;14.572;2022-07-21T11:22:17;7.78;;;5.28;;
28714;SDS011;15886;49.170;14.572;2022-07-21T11:24:59;6.47;;;5.43;;
28714;SDS011;15886;49.170;14.572;2022-07-21T11:27:30;7.47;;;5.57;;
28714;SDS011;15886;49.170;14.572;2022-07-21T11:30:04;8.18;;;5.53;;
28714;SDS011;15886;49.170;14.572;2022-07-21T11:32:36;6.47;;;5.00;;
28714;SDS011;15886;49.170;14.572;2022-07-21T11:35:05;7.97;;;5.10;;
28714;SDS011;15886;49.170;14.572;2022-07-21T11:37:43;5.47;;;4.40;;
28714;SDS011;15886;49.170;14.572;2022-07-21T11:40:14;13.00;;;5.60;;
28714;SDS011;15886;49.170;14.572;2022-07-21T11:42:47;8.63;;;5.32;;
28714;SDS011;15886;49.170;14.572;2022-07-21T11:45:18;6.10;;;5.50;;
28714;SDS011;15886;49.170;14.572;2022-07-21T11:47:50;6.97;;;5.38;;
28714;SDS011;15886;49.170;14.572;2022-07-21T11:50:19;6.47;;;4.93;;
28714;SDS011;15886;49.170;14.572;2022-07-21T11:52:48;7.78;;;5.00;;
28714;SDS011;15886;49.170;14.572;2022-07-21T11:55:17;7.28;;;5.15;;
28714;SDS011;15886;49.170;14.572;2022-07-21T11:57:45;5.95;;;5.30;;
28714;SDS011;15886;49.170;14.572;2022-07-21T12:00:14;5.38;;;4.85;;
28714;SDS011;15886;49.170;14.572;2022-07-21T12:02:44;9.68;;;5.18;;
28714;SDS011;15886;49.170;14.572;2022-07-21T12:05:12;6.03;;;4.82;;
28714;SDS011;15886;49.170;14.572;2022-07-21T12:07:43;7.57;;;4.90;;
28714;SDS011;15886;49.170;14.572;2022-07-21T12:10:24;8.90;;;3.92;;
28714;SDS011;15886;49.170;14.572;2022-07-21T12:12:58;9.15;;;4.32;;
28714;SDS011;15886;49.170;14.572;2022-07-21T12:15:34;5.88;;;5.28;;
28714;SDS011;15886;49.170;14.572;2022-07-21T12:18:05;6.80;;;4.78;;
28714;SDS011;15886;49.170;14.572;2022-07-21T12:20:36;6.10;;;4.65;;
28714;SDS011;15886;49.170;14.572;2022-07-21T12:26:37;4.88;;;4.35;;
28714;SDS011;15886;49.170;14.572;2022-07-21T12:29:49;5.68;;;4.53;;
28714;SDS011;15886;49.170;14.572;2022-07-21T12:36:22;9.40;;;3.80;;
28714;SDS011;15886;49.170;14.572;2022-07-21T12:39:19;4.78;;;4.35;;
28714;SDS011;15886;49.170;14.572;2022-07-21T12:45:24;8.32;;;4.80;;
28714;SDS011;15886;49.170;14.572;2022-07-21T12:48:07;5.20;;;3.97;;
28714;SDS011;15886;49.170;14.572;2022-07-21T12:50:58;7.18;;;3.90;;
28714;SDS011;15886;49.170;14.572;2022-07-21T12:53:54;5.45;;;4.30;;
28714;SDS011;15886;49.170;14.572;2022-07-21T12:57:13;5.70;;;4.47;;
28714;SDS011;15886;49.170;14.572;2022-07-21T12:59:42;5.50;;;4.35;;
28714;SDS011;15886;49.170;14.572;2022-07-21T13:02:10;6.93;;;3.70;;
28714;SDS011;15886;49.170;14.572;2022-07-21T13:04:39;10.90;;;4.20;;
28714;SDS011;15886;49.170;14.572;2022-07-21T13:07:07;5.50;;;4.03;;
28714;SDS011;15886;49.170;14.572;2022-07-21T13:09:36;4.78;;;4.03;;
28714;SDS011;15886;49.170;14.572;2022-07-21T13:12:04;10.13;;;4.45;;
28714;SDS011;15886;49.170;14.572;2022-07-21T13:14:33;7.60;;;4.63;;
28714;SDS011;15886;49.170;14.572;2022-07-21T13:17:03;10.20;;;5.03;;
28714;SDS011;15886;49.170;14.572;2022-07-21T13:19:31;9.88;;;4.85;;
28714;SDS011;15886;49.170;14.572;2022-07-21T13:21:59;8.85;;;5.05;;
28714;SDS011;15886;49.170;14.572;2022-07-21T13:24:27;10.40;;;4.80;;
28714;SDS011;15886;49.170;14.572;2022-07-21T13:26:56;7.22;;;4.80;;
28714;SDS011;15886;49.170;14.572;2022-07-21T13:29:24;11.10;;;5.30;;
28714;SDS011;15886;49.170;14.572;2022-07-21T13:31:52;9.48;;;5.38;;
28714;SDS011;15886;49.170;14.572;2022-07-21T13:34:21;7.18;;;4.95;;
28714;SDS011;15886;49.170;14.572;2022-07-21T13:37:00;6.20;;;4.93;;
28714;SDS011;15886;49.170;14.572;2022-07-21T13:39:29;10.07;;;5.63;;
28714;SDS011;15886;49.170;14.572;2022-07-21T13:42:18;5.20;;;4.35;;
28714;SDS011;15886;49.170;14.572;2022-07-21T13:45:07;6.57;;;4.60;;
28714;SDS011;15886;49.170;14.572;2022-07-21T13:47:38;8.43;;;5.10;;
28714;SDS011;15886;49.170;14.572;2022-07-21T13:50:12;7.00;;;4.85;;
28714;SDS011;15886;49.170;14.572;2022-07-21T13:52:40;5.47;;;4.70;;
28714;SDS011;15886;49.170;14.572;2022-07-21T14:01:08;9.85;;;5.05;;
28714;SDS011;15886;49.170;14.572;2022-07-21T14:13:38;5.85;;;4.75;;
28714;SDS011;15886;49.170;14.572;2022-07-21T14:16:58;8.48;;;4.68;;
28714;SDS011;15886;49.170;14.572;2022-07-21T14:19:44;5.63;;;4.57;;
28714;SDS011;15886;49.170;14.572;2022-07-21T14:25:23;6.93;;;4.95;;
28714;SDS011;15886;49.170;14.572;2022-07-21T14:28:29;7.55;;;5.05;;
28714;SDS011;15886;49.170;14.572;2022-07-21T14:53:00;9.50;;;5.93;;
28714;SDS011;15886;49.170;14.572;2022-07-21T14:55:39;6.97;;;6.15;;
28714;SDS011;15886;49.170;14.572;2022-07-21T15:18:52;6.70;;;5.75;;
28714;SDS011;15886;49.170;14.572;2022-07-21T15:21:26;7.78;;;5.75;;
28714;SDS011;15886;49.170;14.572;2022-07-21T15:34:10;10.98;;;6.53;;
28714;SDS011;15886;49.170;14.572;2022-07-21T15:36:40;10.73;;;5.97;;
28714;SDS011;15886;49.170;14.572;2022-07-21T15:39:10;9.45;;;6.53;;
28714;SDS011;15886;49.170;14.572;2022-07-21T15:41:39;6.40;;;5.18;;
28714;SDS011;15886;49.170;14.572;2022-07-21T15:44:48;10.07;;;5.78;;
28714;SDS011;15886;49.170;14.572;2022-07-21T15:47:20;8.57;;;5.72;;
28714;SDS011;15886;49.170;14.572;2022-07-21T16:14:55;7.20;;;5.38;;
28714;SDS011;15886;49.170;14.572;2022-07-21T16:20:35;7.55;;;5.80;;
28714;SDS011;15886;49.170;14.572;2022-07-21T16:23:14;5.50;;;4.60;;
28714;SDS011;15886;49.170;14.572;2022-07-21T16:28:37;6.80;;;6.10;;
28714;SDS011;15886;49.170;14.572;2022-07-21T16:31:05;6.70;;;5.63;;
28714;SDS011;15886;49.170;14.572;2022-07-21T16:33:34;10.32;;;5.80;;
28714;SDS011;15886;49.170;14.572;2022-07-21T16:36:03;9.52;;;5.95;;
28714;SDS011;15886;49.170;14.572;2022-07-21T16:38:32;8.95;;;6.18;;
28714;SDS011;15886;49.170;14.572;2022-07-21T16:41:01;7.45;;;6.28;;
28714;SDS011;15886;49.170;14.572;2022-07-21T16:43:29;10.88;;;6.20;;
28714;SDS011;15886;49.170;14.572;2022-07-21T16:48:54;11.30;;;6.07;;
28714;SDS011;15886;49.170;14.572;2022-07-21T16:51:24;12.85;;;6.72;;
28714;SDS011;15886;49.170;14.572;2022-07-21T16:53:52;8.60;;;6.68;;
28714;SDS011;15886;49.170;14.572;2022-07-21T16:56:21;7.63;;;5.93;;
28714;SDS011;15886;49.170;14.572;2022-07-21T16:58:49;8.82;;;6.20;;
28714;SDS011;15886;49.170;14.572;2022-07-21T17:01:19;10.35;;;5.80;;
28714;SDS011;15886;49.170;14.572;2022-07-21T17:03:47;9.60;;;5.78;;
28714;SDS011;15886;49.170;14.572;2022-07-21T17:06:16;8.13;;;6.10;;
28714;SDS011;15886;49.170;14.572;2022-07-21T17:08:45;7.95;;;6.20;;
28714;SDS011;15886;49.170;14.572;2022-07-21T17:11:14;8.57;;;6.18;;
28714;SDS011;15886;49.170;14.572;2022-07-21T17:13:42;6.50;;;5.82;;
28714;SDS011;15886;49.170;14.572;2022-07-21T17:16:11;8.82;;;5.53;;
28714;SDS011;15886;49.170;14.572;2022-07-21T17:18:39;7.22;;;5.38;;
28714;SDS011;15886;49.170;14.572;2022-07-21T17:21:08;8.27;;;6.13;;
28714;SDS011;15886;49.170;14.572;2022-07-21T17:23:42;10.15;;;5.50;;
28714;SDS011;15886;49.170;14.572;2022-07-21T17:26:17;6.10;;;5.10;;
28714;SDS011;15886;49.170;14.572;2022-07-21T17:29:07;8.85;;;5.80;;
28714;SDS011;15886;49.170;14.572;2022-07-21T17:38:17;8.05;;;6.03;;
28714;SDS011;15886;49.170;14.572;2022-07-21T17:41:57;9.00;;;6.15;;
28714;SDS011;15886;49.170;14.572;2022-07-21T17:44:47;9.77;;;6.30;;
28714;SDS011;15886;49.170;14.572;2022-07-21T17:47:24;8.52;;;6.57;;
28714;SDS011;15886;49.170;14.572;2022-07-21T17:50:14;8.50;;;6.20;;
28714;SDS011;15886;49.170;14.572;2022-07-21T17:52:47;7.78;;;5.90;;
28714;SDS011;15886;49.170;14.572;2022-07-21T17:55:16;7.47;;;5.97;;
28714;SDS011;15886;49.170;14.572;2022-07-21T17:57:45;7.75;;;5.97;;
28714;SDS011;15886;49.170;14.572;2022-07-21T18:00:37;11.48;;;6.25;;
28714;SDS011;15886;49.170;14.572;2022-07-21T18:03:06;12.43;;;6.80;;
28714;SDS011;15886;49.170;14.572;2022-07-21T18:05:37;10.43;;;5.85;;
28714;SDS011;15886;49.170;14.572;2022-07-21T18:08:08;9.88;;;6.18;;
28714;SDS011;15886;49.170;14.572;2022-07-21T18:10:37;6.45;;;5.43;;
28714;SDS011;15886;49.170;14.572;2022-07-21T18:16:44;8.98;;;6.63;;
28714;SDS011;15886;49.170;14.572;2022-07-21T18:23:14;7.45;;;6.43;;
28714;SDS011;15886;49.170;14.572;2022-07-21T18:41:09;7.78;;;6.32;;
28714;SDS011;15886;49.170;14.572;2022-07-21T18:44:34;11.47;;;6.50;;
28714;SDS011;15886;49.170;14.572;2022-07-21T18:53:23;11.40;;;6.75;;
28714;SDS011;15886;49.170;14.572;2022-07-21T18:59:09;7.97;;;6.55;;
28714;SDS011;15886;49.170;14.572;2022-07-21T19:04:45;8.55;;;7.53;;
28714;SDS011;15886;49.170;14.572;2022-07-21T19:07:17;9.20;;;8.02;;
28714;SDS011;15886;49.170;14.572;2022-07-21T19:16:36;10.15;;;7.28;;
28714;SDS011;15886;49.170;14.572;2022-07-21T19:19:29;12.60;;;7.80;;
28714;SDS011;15886;49.170;14.572;2022-07-21T19:22:00;8.52;;;6.68;;
28714;SDS011;15886;49.170;14.572;2022-07-21T19:24:36;9.25;;;7.40;;
28714;SDS011;15886;49.170;14.572;2022-07-21T19:30:07;12.05;;;7.07;;
28714;SDS011;15886;49.170;14.572;2022-07-21T19:32:37;8.25;;;7.25;;
28714;SDS011;15886;49.170;14.572;2022-07-21T19:38:45;10.27;;;7.50;;
28714;SDS011;15886;49.170;14.572;2022-07-21T19:41:35;12.80;;;7.75;;
28714;SDS011;15886;49.170;14.572;2022-07-21T19:44:06;11.57;;;7.63;;
28714;SDS011;15886;49.170;14.572;2022-07-21T19:46:40;9.80;;;7.25;;
28714;SDS011;15886;49.170;14.572;2022-07-21T19:49:09;13.48;;;7.85;;
28714;SDS011;15886;49.170;14.572;2022-07-21T19:51:37;10.32;;;8.10;;
28714;SDS011;15886;49.170;14.572;2022-07-21T19:54:05;11.45;;;8.05;;
28714;SDS011;15886;49.170;14.572;2022-07-21T19:56:34;10.63;;;8.20;;
28714;SDS011;15886;49.170;14.572;2022-07-21T19:59:03;11.45;;;7.50;;
28714;SDS011;15886;49.170;14.572;2022-07-21T20:01:31;8.82;;;7.43;;
28714;SDS011;15886;49.170;14.572;2022-07-21T20:03:59;12.13;;;8.48;;
28714;SDS011;15886;49.170;14.572;2022-07-21T20:06:27;10.02;;;7.45;;
28714;SDS011;15886;49.170;14.572;2022-07-21T20:08:59;9.70;;;7.82;;
28714;SDS011;15886;49.170;14.572;2022-07-21T20:11:28;8.30;;;7.15;;
28714;SDS011;15886;49.170;14.572;2022-07-21T20:13:56;8.98;;;7.53;;
28714;SDS011;15886;49.170;14.572;2022-07-21T20:16:24;8.75;;;7.03;;
28714;SDS011;15886;49.170;14.572;2022-07-21T20:18:52;14.85;;;7.75;;
28714;SDS011;15886;49.170;14.572;2022-07-21T20:21:20;8.57;;;7.35;;
28714;SDS011;15886;49.170;14.572;2022-07-21T20:23:49;15.50;;;7.80;;
28714;SDS011;15886;49.170;14.572;2022-07-21T20:26:17;13.38;;;7.68;;
28714;SDS011;15886;49.170;14.572;2022-07-21T20:28:50;10.50;;;7.80;;
28714;SDS011;15886;49.170;14.572;2022-07-21T20:31:19;10.35;;;7.85;;
28714;SDS011;15886;49.170;14.572;2022-07-21T20:33:47;12.27;;;8.90;;
28714;SDS011;15886;49.170;14.572;2022-07-21T20:36:16;10.43;;;7.43;;
28714;SDS011;15886;49.170;14.572;2022-07-21T20:38:44;9.55;;;7.32;;
28714;SDS011;15886;49.170;14.572;2022-07-21T20:41:13;8.93;;;8.02;;
28714;SDS011;15886;49.170;14.572;2022-07-21T20:52:53;9.70;;;7.88;;
28714;SDS011;15886;49.170;14.572;2022-07-21T20:56:10;12.38;;;8.80;;
28714;SDS011;15886;49.170;14.572;2022-07-21T20:58:51;15.40;;;9.95;;
28714;SDS011;15886;49.170;14.572;2022-07-21T21:07:25;9.85;;;7.70;;
28714;SDS011;15886;49.170;14.572;2022-07-21T21:10:48;7.70;;;6.90;;
28714;SDS011;15886;49.170;14.572;2022-07-21T21:14:02;8.32;;;7.43;;
28714;SDS011;15886;49.170;14.572;2022-07-21T21:16:31;8.68;;;7.78;;
28714;SDS011;15886;49.170;14.572;2022-07-21T21:19:02;8.57;;;7.40;;
28714;SDS011;15886;49.170;14.572;2022-07-21T21:21:33;10.02;;;7.25;;
28714;SDS011;15886;49.170;14.572;2022-07-21T21:24:03;10.88;;;7.80;;
28714;SDS011;15886;49.170;14.572;2022-07-21T21:27:03;10.68;;;7.80;;
28714;SDS011;15886;49.170;14.572;2022-07-21T21:29:36;11.63;;;7.40;;
28714;SDS011;15886;49.170;14.572;2022-07-21T21:32:14;12.75;;;7.60;;
28714;SDS011;15886;49.170;14.572;2022-07-21T21:35:02;11.75;;;7.68;;
28714;SDS011;15886;49.170;14.572;2022-07-21T21:37:45;9.63;;;7.45;;
28714;SDS011;15886;49.170;14.572;2022-07-21T21:40:20;12.40;;;8.07;;
28714;SDS011;15886;49.170;14.572;2022-07-21T21:42:54;13.18;;;7.93;;
28714;SDS011;15886;49.170;14.572;2022-07-21T21:52:59;10.00;;;7.85;;
28714;SDS011;15886;49.170;14.572;2022-07-21T21:56:38;9.23;;;7.65;;
28714;SDS011;15886;49.170;14.572;2022-07-21T21:59:44;10.73;;;8.20;;
28714;SDS011;15886;49.170;14.572;2022-07-21T22:02:49;11.93;;;7.82;;
28714;SDS011;15886;49.170;14.572;2022-07-21T22:18:03;9.80;;;7.70;;
28714;SDS011;15886;49.170;14.572;2022-07-21T22:20:33;10.75;;;8.93;;
28714;SDS011;15886;49.170;14.572;2022-07-21T22:23:03;13.25;;;8.23;;
28714;SDS011;15886;49.170;14.572;2022-07-21T22:25:48;11.18;;;8.30;;
28714;SDS011;15886;49.170;14.572;2022-07-21T22:32:49;11.27;;;7.95;;
28714;SDS011;15886;49.170;14.572;2022-07-21T22:36:11;10.68;;;8.13;;
28714;SDS011;15886;49.170;14.572;2022-07-21T22:39:23;9.32;;;8.13;;
28714;SDS011;15886;49.170;14.572;2022-07-21T22:42:30;9.93;;;8.38;;
28714;SDS011;15886;49.170;14.572;2022-07-21T22:46:27;12.50;;;8.07;;
28714;SDS011;15886;49.170;14.572;2022-07-21T22:49:02;10.87;;;8.20;;
28714;SDS011;15886;49.170;14.572;2022-07-21T22:52:00;13.15;;;8.60;;
28714;SDS011;15886;49.170;14.572;2022-07-21T22:54:58;10.38;;;8.77;;
28714;SDS011;15886;49.170;14.572;2022-07-21T22:58:55;10.52;;;8.35;;
28714;SDS011;15886;49.170;14.572;2022-07-21T23:02:41;10.40;;;8.50;;
28714;SDS011;15886;49.170;14.572;2022-07-21T23:06:11;28.08;;;8.77;;
28714;SDS011;15886;49.170;14.572;2022-07-21T23:09:45;11.98;;;8.40;;
28714;SDS011;15886;49.170;14.572;2022-07-21T23:12:56;8.95;;;7.78;;
28714;SDS011;15886;49.170;14.572;2022-07-21T23:16:06;11.40;;;8.55;;
28714;SDS011;15886;49.170;14.572;2022-07-21T23:34:20;12.75;;;8.48;;
28714;SDS011;15886;49.170;14.572;2022-07-21T23:37:38;10.85;;;9.05;;
28714;SDS011;15886;49.170;14.572;2022-07-21T23:40:28;9.85;;;8.77;;
28714;SDS011;15886;49.170;14.572;2022-07-21T23:43:26;12.70;;;8.57;;
28714;SDS011;15886;49.170;14.572;2022-07-21T23:46:16;10.70;;;8.35;;
28714;SDS011;15886;49.170;14.572;2022-07-21T23:48:44;12.07;;;8.95;;
28714;SDS011;15886;49.170;14.572;2022-07-21T23:51:13;11.30;;;8.60;;
28714;SDS011;15886;49.170;14.572;2022-07-21T23:53:41;14.52;;;9.23;;
28714;SDS011;15886;49.170;14.572;2022-07-21T23:56:10;11.00;;;8.57;;
28714;SDS011;15886;49.170;14.572;2022-07-21T23:58:41;10.88;;;8.80;;
